sensor_id;sensor_type;location;lat;lon;timestamp;P1;durP1;ratioP1;P2;durP2;ratioP2
68229;SDS011;55048;52.220;5.160;2022-12-16T00:00:10;35.15;;;16.88;;
68229;SDS011;55048;52.220;5.160;2022-12-16T00:02:36;38.92;;;17.73;;
68229;SDS011;55048;52.220;5.160;2022-12-16T00:05:01;33.55;;;16.08;;
68229;SDS011;55048;52.220;5.160;2022-12-16T00:07:28;40.03;;;16.08;;
68229;SDS011;55048;52.220;5.160;2022-12-16T00:09:53;27.92;;;14.38;;
68229;SDS011;55048;52.220;5.160;2022-12-16T00:12:19;27.13;;;14.20;;
68229;SDS011;55048;52.220;5.160;2022-12-16T00:14:44;28.63;;;14.57;;
68229;SDS011;55048;52.220;5.160;2022-12-16T00:17:09;26.92;;;13.50;;
68229;SDS011;55048;52.220;5.160;2022-12-16T00:19:35;26.80;;;14.25;;
68229;SDS011;55048;52.220;5.160;2022-12-16T00:22:00;24.98;;;13.10;;
68229;SDS011;55048;52.220;5.160;2022-12-16T00:24:26;30.55;;;13.25;;
68229;SDS011;55048;52.220;5.160;2022-12-16T00:26:51;20.75;;;11.55;;
68229;SDS011;55048;52.220;5.160;2022-12-16T00:29:17;23.90;;;11.27;;
68229;SDS011;55048;52.220;5.160;2022-12-16T00:31:42;23.60;;;11.23;;
68229;SDS011;55048;52.220;5.160;2022-12-16T00:34:12;20.00;;;10.05;;
68229;SDS011;55048;52.220;5.160;2022-12-16T00:36:38;19.20;;;9.73;;
68229;SDS011;55048;52.220;5.160;2022-12-16T00:39:04;16.80;;;8.23;;
68229;SDS011;55048;52.220;5.160;2022-12-16T00:41:29;18.55;;;7.07;;
68229;SDS011;55048;52.220;5.160;2022-12-16T00:43:54;11.32;;;6.32;;
68229;SDS011;55048;52.220;5.160;2022-12-16T00:46:20;8.60;;;5.03;;
68229;SDS011;55048;52.220;5.160;2022-12-16T00:48:45;9.10;;;3.95;;
68229;SDS011;55048;52.220;5.160;2022-12-16T00:51:11;12.38;;;4.40;;
68229;SDS011;55048;52.220;5.160;2022-12-16T00:53:36;10.02;;;4.60;;
68229;SDS011;55048;52.220;5.160;2022-12-16T00:56:03;10.02;;;4.13;;
68229;SDS011;55048;52.220;5.160;2022-12-16T00:58:30;9.48;;;4.63;;
68229;SDS011;55048;52.220;5.160;2022-12-16T01:00:59;8.30;;;3.17;;
68229;SDS011;55048;52.220;5.160;2022-12-16T01:03:25;7.15;;;3.05;;
68229;SDS011;55048;52.220;5.160;2022-12-16T01:05:50;9.95;;;2.88;;
68229;SDS011;55048;52.220;5.160;2022-12-16T01:08:16;4.35;;;1.52;;
68229;SDS011;55048;52.220;5.160;2022-12-16T01:10:42;5.60;;;2.47;;
68229;SDS011;55048;52.220;5.160;2022-12-16T01:13:13;10.82;;;2.55;;
68229;SDS011;55048;52.220;5.160;2022-12-16T01:15:39;8.38;;;2.13;;
68229;SDS011;55048;52.220;5.160;2022-12-16T01:18:04;5.05;;;1.48;;
68229;SDS011;55048;52.220;5.160;2022-12-16T01:20:31;6.00;;;2.05;;
68229;SDS011;55048;52.220;5.160;2022-12-16T01:22:57;8.85;;;2.10;;
68229;SDS011;55048;52.220;5.160;2022-12-16T01:25:22;9.35;;;2.50;;
68229;SDS011;55048;52.220;5.160;2022-12-16T01:27:49;7.70;;;1.92;;
68229;SDS011;55048;52.220;5.160;2022-12-16T01:30:14;3.42;;;1.73;;
68229;SDS011;55048;52.220;5.160;2022-12-16T01:32:40;5.40;;;2.00;;
68229;SDS011;55048;52.220;5.160;2022-12-16T01:35:06;13.20;;;2.17;;
68229;SDS011;55048;52.220;5.160;2022-12-16T01:37:31;10.85;;;2.20;;
68229;SDS011;55048;52.220;5.160;2022-12-16T01:39:57;7.72;;;2.05;;
68229;SDS011;55048;52.220;5.160;2022-12-16T01:42:22;6.00;;;2.22;;
68229;SDS011;55048;52.220;5.160;2022-12-16T01:44:48;6.10;;;2.17;;
68229;SDS011;55048;52.220;5.160;2022-12-16T01:47:16;7.70;;;2.25;;
68229;SDS011;55048;52.220;5.160;2022-12-16T01:49:49;9.18;;;2.25;;
68229;SDS011;55048;52.220;5.160;2022-12-16T01:52:21;6.55;;;2.13;;
68229;SDS011;55048;52.220;5.160;2022-12-16T01:54:54;12.43;;;1.67;;
68229;SDS011;55048;52.220;5.160;2022-12-16T01:57:35;10.32;;;2.45;;
68229;SDS011;55048;52.220;5.160;2022-12-16T02:00:15;5.07;;;2.42;;
68229;SDS011;55048;52.220;5.160;2022-12-16T02:02:47;6.30;;;2.47;;
68229;SDS011;55048;52.220;5.160;2022-12-16T02:05:14;6.35;;;2.25;;
68229;SDS011;55048;52.220;5.160;2022-12-16T02:08:28;8.75;;;2.35;;
68229;SDS011;55048;52.220;5.160;2022-12-16T02:13:09;7.50;;;3.00;;
68229;SDS011;55048;52.220;5.160;2022-12-16T02:15:54;9.02;;;2.67;;
68229;SDS011;55048;52.220;5.160;2022-12-16T02:21:08;8.55;;;3.47;;
68229;SDS011;55048;52.220;5.160;2022-12-16T02:32:04;7.40;;;2.78;;
68229;SDS011;55048;52.220;5.160;2022-12-16T02:34:45;5.70;;;3.08;;
68229;SDS011;55048;52.220;5.160;2022-12-16T02:37:43;10.60;;;3.00;;
68229;SDS011;55048;52.220;5.160;2022-12-16T02:40:11;8.07;;;3.38;;
68229;SDS011;55048;52.220;5.160;2022-12-16T02:42:49;7.00;;;3.20;;
68229;SDS011;55048;52.220;5.160;2022-12-16T02:45:19;8.98;;;3.20;;
68229;SDS011;55048;52.220;5.160;2022-12-16T02:47:49;4.88;;;2.15;;
68229;SDS011;55048;52.220;5.160;2022-12-16T02:50:22;6.95;;;3.33;;
68229;SDS011;55048;52.220;5.160;2022-12-16T02:52:51;7.05;;;3.38;;
68229;SDS011;55048;52.220;5.160;2022-12-16T02:55:19;12.80;;;3.20;;
68229;SDS011;55048;52.220;5.160;2022-12-16T03:00:30;5.95;;;3.33;;
68229;SDS011;55048;52.220;5.160;2022-12-16T03:03:12;11.85;;;3.30;;
68229;SDS011;55048;52.220;5.160;2022-12-16T03:06:03;9.77;;;3.17;;
68229;SDS011;55048;52.220;5.160;2022-12-16T03:08:34;12.10;;;3.55;;
68229;SDS011;55048;52.220;5.160;2022-12-16T03:11:03;4.78;;;2.65;;
68229;SDS011;55048;52.220;5.160;2022-12-16T03:13:34;9.18;;;3.20;;
68229;SDS011;55048;52.220;5.160;2022-12-16T03:16:07;13.88;;;3.63;;
68229;SDS011;55048;52.220;5.160;2022-12-16T03:18:35;7.72;;;3.22;;
68229;SDS011;55048;52.220;5.160;2022-12-16T03:21:04;8.30;;;3.13;;
68229;SDS011;55048;52.220;5.160;2022-12-16T03:23:32;10.20;;;4.07;;
68229;SDS011;55048;52.220;5.160;2022-12-16T03:26:09;9.10;;;3.53;;
68229;SDS011;55048;52.220;5.160;2022-12-16T03:28:42;9.23;;;3.38;;
68229;SDS011;55048;52.220;5.160;2022-12-16T03:37:14;15.07;;;3.47;;
68229;SDS011;55048;52.220;5.160;2022-12-16T03:39:41;7.65;;;3.42;;
68229;SDS011;55048;52.220;5.160;2022-12-16T03:42:11;13.18;;;3.90;;
68229;SDS011;55048;52.220;5.160;2022-12-16T03:44:39;13.23;;;3.88;;
68229;SDS011;55048;52.220;5.160;2022-12-16T03:47:07;11.40;;;3.40;;
68229;SDS011;55048;52.220;5.160;2022-12-16T03:49:33;8.20;;;3.63;;
68229;SDS011;55048;52.220;5.160;2022-12-16T03:51:58;11.38;;;3.53;;
68229;SDS011;55048;52.220;5.160;2022-12-16T03:54:24;10.07;;;3.53;;
68229;SDS011;55048;52.220;5.160;2022-12-16T03:56:49;6.95;;;3.38;;
68229;SDS011;55048;52.220;5.160;2022-12-16T03:59:15;9.35;;;2.85;;
68229;SDS011;55048;52.220;5.160;2022-12-16T04:01:41;8.40;;;3.08;;
68229;SDS011;55048;52.220;5.160;2022-12-16T04:04:07;5.63;;;2.97;;
68229;SDS011;55048;52.220;5.160;2022-12-16T04:06:33;6.93;;;3.13;;
68229;SDS011;55048;52.220;5.160;2022-12-16T04:08:58;17.95;;;3.83;;
68229;SDS011;55048;52.220;5.160;2022-12-16T04:11:24;8.52;;;2.90;;
68229;SDS011;55048;52.220;5.160;2022-12-16T04:14:08;5.40;;;3.22;;
68229;SDS011;55048;52.220;5.160;2022-12-16T04:16:52;4.85;;;2.85;;
68229;SDS011;55048;52.220;5.160;2022-12-16T04:19:37;6.70;;;3.08;;
68229;SDS011;55048;52.220;5.160;2022-12-16T04:22:25;8.07;;;3.20;;
68229;SDS011;55048;52.220;5.160;2022-12-16T04:25:14;11.70;;;2.83;;
68229;SDS011;55048;52.220;5.160;2022-12-16T04:27:42;5.78;;;3.03;;
68229;SDS011;55048;52.220;5.160;2022-12-16T04:30:14;7.32;;;2.75;;
68229;SDS011;55048;52.220;5.160;2022-12-16T04:32:43;9.82;;;2.95;;
68229;SDS011;55048;52.220;5.160;2022-12-16T04:35:31;8.55;;;2.72;;
68229;SDS011;55048;52.220;5.160;2022-12-16T04:38:15;7.78;;;3.30;;
68229;SDS011;55048;52.220;5.160;2022-12-16T04:40:59;6.00;;;2.47;;
68229;SDS011;55048;52.220;5.160;2022-12-16T04:43:43;6.90;;;2.85;;
68229;SDS011;55048;52.220;5.160;2022-12-16T04:46:27;6.93;;;3.00;;
68229;SDS011;55048;52.220;5.160;2022-12-16T04:49:11;10.32;;;2.83;;
68229;SDS011;55048;52.220;5.160;2022-12-16T04:51:56;5.65;;;2.50;;
68229;SDS011;55048;52.220;5.160;2022-12-16T04:54:39;10.65;;;2.90;;
68229;SDS011;55048;52.220;5.160;2022-12-16T04:57:23;11.38;;;2.92;;
68229;SDS011;55048;52.220;5.160;2022-12-16T05:00:08;7.88;;;2.88;;
68229;SDS011;55048;52.220;5.160;2022-12-16T05:02:52;7.97;;;3.22;;
68229;SDS011;55048;52.220;5.160;2022-12-16T05:05:41;11.63;;;3.10;;
68229;SDS011;55048;52.220;5.160;2022-12-16T05:08:25;8.95;;;2.88;;
68229;SDS011;55048;52.220;5.160;2022-12-16T05:11:09;12.32;;;3.42;;
68229;SDS011;55048;52.220;5.160;2022-12-16T05:13:53;10.23;;;3.58;;
68229;SDS011;55048;52.220;5.160;2022-12-16T05:16:36;9.65;;;3.63;;
68229;SDS011;55048;52.220;5.160;2022-12-16T05:19:20;8.82;;;3.65;;
68229;SDS011;55048;52.220;5.160;2022-12-16T05:22:04;8.15;;;3.22;;
68229;SDS011;55048;52.220;5.160;2022-12-16T05:24:48;6.55;;;3.67;;
68229;SDS011;55048;52.220;5.160;2022-12-16T05:27:32;15.90;;;3.53;;
68229;SDS011;55048;52.220;5.160;2022-12-16T05:30:16;9.82;;;4.20;;
68229;SDS011;55048;52.220;5.160;2022-12-16T05:33:00;9.35;;;3.58;;
68229;SDS011;55048;52.220;5.160;2022-12-16T05:35:44;9.20;;;3.00;;
68229;SDS011;55048;52.220;5.160;2022-12-16T05:38:28;11.05;;;3.47;;
68229;SDS011;55048;52.220;5.160;2022-12-16T05:41:12;12.70;;;3.28;;
68229;SDS011;55048;52.220;5.160;2022-12-16T05:43:56;10.18;;;3.08;;
68229;SDS011;55048;52.220;5.160;2022-12-16T05:46:39;9.25;;;3.00;;
68229;SDS011;55048;52.220;5.160;2022-12-16T05:49:23;14.90;;;2.92;;
68229;SDS011;55048;52.220;5.160;2022-12-16T05:52:07;5.95;;;2.95;;
68229;SDS011;55048;52.220;5.160;2022-12-16T05:54:51;10.02;;;3.08;;
68229;SDS011;55048;52.220;5.160;2022-12-16T05:57:35;7.55;;;3.15;;
68229;SDS011;55048;52.220;5.160;2022-12-16T06:00:19;14.07;;;3.35;;
68229;SDS011;55048;52.220;5.160;2022-12-16T06:03:03;9.93;;;2.60;;
68229;SDS011;55048;52.220;5.160;2022-12-16T06:05:47;8.38;;;3.05;;
68229;SDS011;55048;52.220;5.160;2022-12-16T06:08:30;6.93;;;3.00;;
68229;SDS011;55048;52.220;5.160;2022-12-16T06:11:14;8.23;;;2.65;;
68229;SDS011;55048;52.220;5.160;2022-12-16T06:13:58;6.50;;;2.85;;
68229;SDS011;55048;52.220;5.160;2022-12-16T06:16:42;8.07;;;3.20;;
68229;SDS011;55048;52.220;5.160;2022-12-16T06:19:26;10.02;;;5.35;;
68229;SDS011;55048;52.220;5.160;2022-12-16T06:22:10;9.55;;;5.25;;
68229;SDS011;55048;52.220;5.160;2022-12-16T06:24:54;5.55;;;3.80;;
68229;SDS011;55048;52.220;5.160;2022-12-16T06:27:38;8.07;;;3.25;;
68229;SDS011;55048;52.220;5.160;2022-12-16T06:30:22;6.53;;;2.95;;
68229;SDS011;55048;52.220;5.160;2022-12-16T06:33:06;8.18;;;2.60;;
68229;SDS011;55048;52.220;5.160;2022-12-16T06:35:50;4.30;;;2.38;;
68229;SDS011;55048;52.220;5.160;2022-12-16T06:38:34;9.38;;;2.42;;
68229;SDS011;55048;52.220;5.160;2022-12-16T06:41:17;11.88;;;2.47;;
68229;SDS011;55048;52.220;5.160;2022-12-16T06:44:01;14.63;;;2.97;;
68229;SDS011;55048;52.220;5.160;2022-12-16T06:46:45;9.07;;;2.30;;
68229;SDS011;55048;52.220;5.160;2022-12-16T06:49:29;11.48;;;2.28;;
68229;SDS011;55048;52.220;5.160;2022-12-16T06:52:13;5.95;;;2.63;;
68229;SDS011;55048;52.220;5.160;2022-12-16T06:54:57;6.28;;;2.17;;
68229;SDS011;55048;52.220;5.160;2022-12-16T06:57:41;8.88;;;2.00;;
68229;SDS011;55048;52.220;5.160;2022-12-16T07:00:25;7.40;;;1.92;;
68229;SDS011;55048;52.220;5.160;2022-12-16T07:03:09;7.43;;;2.33;;
68229;SDS011;55048;52.220;5.160;2022-12-16T07:05:53;12.20;;;2.67;;
68229;SDS011;55048;52.220;5.160;2022-12-16T07:08:38;6.45;;;1.77;;
68229;SDS011;55048;52.220;5.160;2022-12-16T07:11:22;7.20;;;1.95;;
68229;SDS011;55048;52.220;5.160;2022-12-16T07:14:06;6.47;;;2.30;;
68229;SDS011;55048;52.220;5.160;2022-12-16T07:16:50;8.48;;;2.00;;
68229;SDS011;55048;52.220;5.160;2022-12-16T07:19:34;6.45;;;2.20;;
68229;SDS011;55048;52.220;5.160;2022-12-16T07:22:18;7.88;;;2.10;;
68229;SDS011;55048;52.220;5.160;2022-12-16T07:25:02;15.13;;;2.42;;
68229;SDS011;55048;52.220;5.160;2022-12-16T07:27:46;8.60;;;2.25;;
68229;SDS011;55048;52.220;5.160;2022-12-16T07:30:30;11.50;;;1.95;;
68229;SDS011;55048;52.220;5.160;2022-12-16T07:33:14;4.97;;;1.58;;
68229;SDS011;55048;52.220;5.160;2022-12-16T07:35:58;14.60;;;2.30;;
68229;SDS011;55048;52.220;5.160;2022-12-16T07:38:42;9.88;;;1.70;;
68229;SDS011;55048;52.220;5.160;2022-12-16T07:41:26;8.25;;;2.08;;
68229;SDS011;55048;52.220;5.160;2022-12-16T07:44:10;9.07;;;1.77;;
68229;SDS011;55048;52.220;5.160;2022-12-16T07:46:54;5.25;;;1.58;;
68229;SDS011;55048;52.220;5.160;2022-12-16T07:49:38;6.40;;;1.55;;
68229;SDS011;55048;52.220;5.160;2022-12-16T07:52:22;10.15;;;1.80;;
68229;SDS011;55048;52.220;5.160;2022-12-16T07:55:06;4.18;;;1.33;;
68229;SDS011;55048;52.220;5.160;2022-12-16T07:57:51;4.18;;;1.30;;
68229;SDS011;55048;52.220;5.160;2022-12-16T08:00:35;11.38;;;1.98;;
68229;SDS011;55048;52.220;5.160;2022-12-16T08:03:19;14.43;;;1.95;;
68229;SDS011;55048;52.220;5.160;2022-12-16T08:06:03;9.80;;;1.88;;
68229;SDS011;55048;52.220;5.160;2022-12-16T08:08:47;4.22;;;1.55;;
68229;SDS011;55048;52.220;5.160;2022-12-16T08:11:31;7.88;;;1.80;;
68229;SDS011;55048;52.220;5.160;2022-12-16T08:14:15;10.95;;;2.03;;
68229;SDS011;55048;52.220;5.160;2022-12-16T08:16:59;10.82;;;2.65;;
68229;SDS011;55048;52.220;5.160;2022-12-16T08:19:43;5.38;;;2.05;;
68229;SDS011;55048;52.220;5.160;2022-12-16T08:22:27;4.32;;;2.03;;
68229;SDS011;55048;52.220;5.160;2022-12-16T08:25:11;10.73;;;1.92;;
68229;SDS011;55048;52.220;5.160;2022-12-16T08:27:55;7.72;;;2.40;;
68229;SDS011;55048;52.220;5.160;2022-12-16T08:30:39;10.75;;;2.80;;
68229;SDS011;55048;52.220;5.160;2022-12-16T08:33:24;5.25;;;2.55;;
68229;SDS011;55048;52.220;5.160;2022-12-16T08:36:08;8.35;;;1.92;;
68229;SDS011;55048;52.220;5.160;2022-12-16T08:38:52;5.60;;;1.70;;
68229;SDS011;55048;52.220;5.160;2022-12-16T08:41:36;8.45;;;2.00;;
68229;SDS011;55048;52.220;5.160;2022-12-16T08:44:19;12.38;;;2.40;;
68229;SDS011;55048;52.220;5.160;2022-12-16T08:47:04;6.22;;;1.63;;
68229;SDS011;55048;52.220;5.160;2022-12-16T08:49:47;12.13;;;1.83;;
68229;SDS011;55048;52.220;5.160;2022-12-16T08:52:31;6.10;;;2.30;;
68229;SDS011;55048;52.220;5.160;2022-12-16T08:55:15;5.60;;;1.77;;
68229;SDS011;55048;52.220;5.160;2022-12-16T08:57:59;4.35;;;1.55;;
68229;SDS011;55048;52.220;5.160;2022-12-16T09:00:43;5.78;;;1.60;;
68229;SDS011;55048;52.220;5.160;2022-12-16T09:03:28;5.38;;;1.58;;
68229;SDS011;55048;52.220;5.160;2022-12-16T09:06:11;9.40;;;2.00;;
68229;SDS011;55048;52.220;5.160;2022-12-16T09:08:55;7.07;;;1.25;;
68229;SDS011;55048;52.220;5.160;2022-12-16T09:11:39;7.63;;;1.73;;
68229;SDS011;55048;52.220;5.160;2022-12-16T09:14:23;3.58;;;1.63;;
68229;SDS011;55048;52.220;5.160;2022-12-16T09:17:07;11.10;;;1.35;;
68229;SDS011;55048;52.220;5.160;2022-12-16T09:19:51;3.35;;;1.35;;
68229;SDS011;55048;52.220;5.160;2022-12-16T09:22:35;5.63;;;1.95;;
68229;SDS011;55048;52.220;5.160;2022-12-16T09:25:19;10.02;;;1.88;;
68229;SDS011;55048;52.220;5.160;2022-12-16T09:28:03;3.88;;;1.60;;
68229;SDS011;55048;52.220;5.160;2022-12-16T09:30:47;3.40;;;1.20;;
68229;SDS011;55048;52.220;5.160;2022-12-16T09:33:31;9.15;;;1.40;;
68229;SDS011;55048;52.220;5.160;2022-12-16T09:36:15;4.40;;;1.30;;
68229;SDS011;55048;52.220;5.160;2022-12-16T09:38:59;8.63;;;1.80;;
68229;SDS011;55048;52.220;5.160;2022-12-16T09:41:44;5.82;;;2.08;;
68229;SDS011;55048;52.220;5.160;2022-12-16T09:44:56;7.90;;;1.70;;
68229;SDS011;55048;52.220;5.160;2022-12-16T09:47:55;7.80;;;1.65;;
68229;SDS011;55048;52.220;5.160;2022-12-16T09:50:49;4.25;;;1.50;;
68229;SDS011;55048;52.220;5.160;2022-12-16T09:53:38;8.30;;;1.42;;
68229;SDS011;55048;52.220;5.160;2022-12-16T09:56:34;1.90;;;1.25;;
68229;SDS011;55048;52.220;5.160;2022-12-16T09:59:24;5.20;;;2.00;;
68229;SDS011;55048;52.220;5.160;2022-12-16T10:02:11;4.68;;;1.35;;
68229;SDS011;55048;52.220;5.160;2022-12-16T10:04:58;10.40;;;2.03;;
68229;SDS011;55048;52.220;5.160;2022-12-16T10:07:50;7.93;;;1.83;;
68229;SDS011;55048;52.220;5.160;2022-12-16T10:10:50;11.43;;;1.88;;
68229;SDS011;55048;52.220;5.160;2022-12-16T10:20:03;8.05;;;1.85;;
68229;SDS011;55048;52.220;5.160;2022-12-16T10:26:24;9.43;;;2.08;;
68229;SDS011;55048;52.220;5.160;2022-12-16T10:29:17;5.30;;;1.83;;
68229;SDS011;55048;52.220;5.160;2022-12-16T10:32:22;6.28;;;2.35;;
68229;SDS011;55048;52.220;5.160;2022-12-16T10:35:19;9.07;;;2.40;;
68229;SDS011;55048;52.220;5.160;2022-12-16T10:38:05;4.97;;;1.80;;
68229;SDS011;55048;52.220;5.160;2022-12-16T10:40:57;7.43;;;2.28;;
68229;SDS011;55048;52.220;5.160;2022-12-16T10:43:43;8.00;;;2.90;;
68229;SDS011;55048;52.220;5.160;2022-12-16T10:46:32;9.27;;;3.10;;
68229;SDS011;55048;52.220;5.160;2022-12-16T10:49:17;11.27;;;3.13;;
68229;SDS011;55048;52.220;5.160;2022-12-16T10:52:01;5.90;;;3.05;;
68229;SDS011;55048;52.220;5.160;2022-12-16T10:58:05;10.40;;;3.80;;
68229;SDS011;55048;52.220;5.160;2022-12-16T11:01:01;4.88;;;1.77;;
68229;SDS011;55048;52.220;5.160;2022-12-16T11:04:25;8.63;;;3.72;;
68229;SDS011;55048;52.220;5.160;2022-12-16T11:07:33;7.40;;;3.13;;
68229;SDS011;55048;52.220;5.160;2022-12-16T11:13:15;8.32;;;3.70;;
68229;SDS011;55048;52.220;5.160;2022-12-16T11:16:09;8.90;;;5.03;;
68229;SDS011;55048;52.220;5.160;2022-12-16T11:18:55;9.02;;;4.50;;
68229;SDS011;55048;52.220;5.160;2022-12-16T11:21:39;10.82;;;5.38;;
68229;SDS011;55048;52.220;5.160;2022-12-16T11:24:23;14.55;;;6.03;;
68229;SDS011;55048;52.220;5.160;2022-12-16T11:30:00;13.10;;;7.32;;
68229;SDS011;55048;52.220;5.160;2022-12-16T11:32:57;11.75;;;6.75;;
68229;SDS011;55048;52.220;5.160;2022-12-16T11:35:45;13.32;;;7.38;;
68229;SDS011;55048;52.220;5.160;2022-12-16T11:38:40;17.15;;;8.68;;
68229;SDS011;55048;52.220;5.160;2022-12-16T11:41:28;13.70;;;7.85;;
68229;SDS011;55048;52.220;5.160;2022-12-16T11:44:17;14.18;;;7.53;;
68229;SDS011;55048;52.220;5.160;2022-12-16T11:47:06;16.63;;;7.80;;
68229;SDS011;55048;52.220;5.160;2022-12-16T11:50:00;19.95;;;8.55;;
68229;SDS011;55048;52.220;5.160;2022-12-16T11:53:01;17.60;;;7.72;;
68229;SDS011;55048;52.220;5.160;2022-12-16T11:55:50;13.70;;;7.75;;
68229;SDS011;55048;52.220;5.160;2022-12-16T11:58:44;16.33;;;7.90;;
68229;SDS011;55048;52.220;5.160;2022-12-16T12:01:32;15.80;;;6.53;;
68229;SDS011;55048;52.220;5.160;2022-12-16T12:04:20;10.95;;;7.32;;
68229;SDS011;55048;52.220;5.160;2022-12-16T12:16:27;14.68;;;7.63;;
68229;SDS011;55048;52.220;5.160;2022-12-16T12:19:26;10.23;;;7.15;;
68229;SDS011;55048;52.220;5.160;2022-12-16T12:22:32;14.85;;;8.18;;
68229;SDS011;55048;52.220;5.160;2022-12-16T12:25:28;16.40;;;8.38;;
68229;SDS011;55048;52.220;5.160;2022-12-16T12:28:34;18.98;;;9.40;;
68229;SDS011;55048;52.220;5.160;2022-12-16T12:34:44;14.52;;;7.95;;
68229;SDS011;55048;52.220;5.160;2022-12-16T12:49:29;11.10;;;6.65;;
68229;SDS011;55048;52.220;5.160;2022-12-16T12:55:22;13.35;;;8.13;;
68229;SDS011;55048;52.220;5.160;2022-12-16T12:58:12;14.02;;;7.45;;
68229;SDS011;55048;52.220;5.160;2022-12-16T13:00:58;14.07;;;8.20;;
68229;SDS011;55048;52.220;5.160;2022-12-16T13:06:41;14.98;;;9.55;;
68229;SDS011;55048;52.220;5.160;2022-12-16T13:20:56;10.23;;;5.88;;
68229;SDS011;55048;52.220;5.160;2022-12-16T13:23:44;19.35;;;9.25;;
68229;SDS011;55048;52.220;5.160;2022-12-16T13:26:29;16.10;;;8.63;;
68229;SDS011;55048;52.220;5.160;2022-12-16T13:29:20;13.13;;;7.25;;
68229;SDS011;55048;52.220;5.160;2022-12-16T13:32:20;13.75;;;6.35;;
68229;SDS011;55048;52.220;5.160;2022-12-16T13:37:53;20.25;;;10.38;;
68229;SDS011;55048;52.220;5.160;2022-12-16T13:40:46;20.52;;;9.73;;
68229;SDS011;55048;52.220;5.160;2022-12-16T13:46:44;12.40;;;8.20;;
68229;SDS011;55048;52.220;5.160;2022-12-16T13:58:10;20.90;;;9.25;;
68229;SDS011;55048;52.220;5.160;2022-12-16T14:01:05;14.18;;;7.00;;
68229;SDS011;55048;52.220;5.160;2022-12-16T14:03:54;21.17;;;11.88;;
68229;SDS011;55048;52.220;5.160;2022-12-16T14:06:40;28.20;;;10.65;;
68229;SDS011;55048;52.220;5.160;2022-12-16T14:09:40;25.67;;;10.95;;
68229;SDS011;55048;52.220;5.160;2022-12-16T14:15:30;16.00;;;9.20;;
68229;SDS011;55048;52.220;5.160;2022-12-16T14:18:25;15.75;;;7.20;;
68229;SDS011;55048;52.220;5.160;2022-12-16T14:21:14;18.10;;;8.70;;
68229;SDS011;55048;52.220;5.160;2022-12-16T14:24:09;12.20;;;6.13;;
68229;SDS011;55048;52.220;5.160;2022-12-16T14:27:10;13.50;;;6.30;;
68229;SDS011;55048;52.220;5.160;2022-12-16T14:29:56;12.27;;;6.70;;
68229;SDS011;55048;52.220;5.160;2022-12-16T14:32:41;18.13;;;7.47;;
68229;SDS011;55048;52.220;5.160;2022-12-16T14:35:25;18.73;;;7.60;;
68229;SDS011;55048;52.220;5.160;2022-12-16T14:41:12;9.45;;;6.05;;
68229;SDS011;55048;52.220;5.160;2022-12-16T14:43:58;15.88;;;6.38;;
68229;SDS011;55048;52.220;5.160;2022-12-16T14:46:47;13.25;;;6.22;;
68229;SDS011;55048;52.220;5.160;2022-12-16T14:49:36;14.70;;;6.72;;
68229;SDS011;55048;52.220;5.160;2022-12-16T14:52:40;14.45;;;5.85;;
68229;SDS011;55048;52.220;5.160;2022-12-16T14:55:27;10.70;;;5.68;;
68229;SDS011;55048;52.220;5.160;2022-12-16T14:58:39;9.93;;;5.35;;
68229;SDS011;55048;52.220;5.160;2022-12-16T15:01:23;10.88;;;5.90;;
68229;SDS011;55048;52.220;5.160;2022-12-16T15:04:12;8.90;;;5.38;;
68229;SDS011;55048;52.220;5.160;2022-12-16T15:07:02;11.18;;;5.50;;
68229;SDS011;55048;52.220;5.160;2022-12-16T15:09:52;9.05;;;5.03;;
68229;SDS011;55048;52.220;5.160;2022-12-16T15:12:39;11.55;;;5.53;;
68229;SDS011;55048;52.220;5.160;2022-12-16T15:15:31;9.52;;;4.88;;
68229;SDS011;55048;52.220;5.160;2022-12-16T15:18:23;11.13;;;5.30;;
68229;SDS011;55048;52.220;5.160;2022-12-16T15:21:10;8.55;;;4.95;;
68229;SDS011;55048;52.220;5.160;2022-12-16T15:23:54;7.78;;;4.55;;
68229;SDS011;55048;52.220;5.160;2022-12-16T15:26:39;11.48;;;4.65;;
68229;SDS011;55048;52.220;5.160;2022-12-16T15:29:27;10.45;;;4.85;;
68229;SDS011;55048;52.220;5.160;2022-12-16T15:32:50;10.88;;;4.70;;
68229;SDS011;55048;52.220;5.160;2022-12-16T15:40:58;13.93;;;5.43;;
68229;SDS011;55048;52.220;5.160;2022-12-16T15:43:44;7.40;;;4.97;;
68229;SDS011;55048;52.220;5.160;2022-12-16T15:46:29;10.23;;;5.15;;
68229;SDS011;55048;52.220;5.160;2022-12-16T15:58:29;14.90;;;5.90;;
68229;SDS011;55048;52.220;5.160;2022-12-16T16:01:16;7.20;;;4.47;;
68229;SDS011;55048;52.220;5.160;2022-12-16T16:04:03;13.35;;;4.40;;
68229;SDS011;55048;52.220;5.160;2022-12-16T16:07:07;9.80;;;4.25;;
68229;SDS011;55048;52.220;5.160;2022-12-16T16:10:13;7.15;;;3.55;;
68229;SDS011;55048;52.220;5.160;2022-12-16T16:12:58;13.30;;;6.28;;
68229;SDS011;55048;52.220;5.160;2022-12-16T16:15:42;15.38;;;7.97;;
68229;SDS011;55048;52.220;5.160;2022-12-16T16:18:27;33.47;;;14.93;;
68229;SDS011;55048;52.220;5.160;2022-12-16T16:21:11;28.60;;;12.50;;
68229;SDS011;55048;52.220;5.160;2022-12-16T16:24:02;20.42;;;9.73;;
68229;SDS011;55048;52.220;5.160;2022-12-16T16:26:46;14.95;;;7.93;;
68229;SDS011;55048;52.220;5.160;2022-12-16T16:29:30;17.45;;;8.07;;
68229;SDS011;55048;52.220;5.160;2022-12-16T16:32:14;11.70;;;6.78;;
68229;SDS011;55048;52.220;5.160;2022-12-16T16:34:58;17.92;;;9.98;;
68229;SDS011;55048;52.220;5.160;2022-12-16T16:37:42;18.35;;;9.27;;
68229;SDS011;55048;52.220;5.160;2022-12-16T16:40:30;13.80;;;8.82;;
68229;SDS011;55048;52.220;5.160;2022-12-16T16:43:17;19.17;;;9.10;;
68229;SDS011;55048;52.220;5.160;2022-12-16T16:46:01;18.27;;;8.77;;
68229;SDS011;55048;52.220;5.160;2022-12-16T16:48:56;16.55;;;8.85;;
68229;SDS011;55048;52.220;5.160;2022-12-16T16:51:40;14.13;;;8.65;;
68229;SDS011;55048;52.220;5.160;2022-12-16T16:54:24;15.40;;;7.97;;
68229;SDS011;55048;52.220;5.160;2022-12-16T16:57:08;13.98;;;8.32;;
68229;SDS011;55048;52.220;5.160;2022-12-16T16:59:52;13.52;;;7.78;;
68229;SDS011;55048;52.220;5.160;2022-12-16T17:02:36;20.92;;;8.63;;
68229;SDS011;55048;52.220;5.160;2022-12-16T17:05:20;15.13;;;7.30;;
68229;SDS011;55048;52.220;5.160;2022-12-16T17:08:04;18.45;;;9.07;;
68229;SDS011;55048;52.220;5.160;2022-12-16T17:10:48;17.90;;;10.15;;
68229;SDS011;55048;52.220;5.160;2022-12-16T17:13:33;16.67;;;9.02;;
68229;SDS011;55048;52.220;5.160;2022-12-16T17:16:16;19.27;;;9.13;;
68229;SDS011;55048;52.220;5.160;2022-12-16T17:19:01;17.90;;;11.23;;
68229;SDS011;55048;52.220;5.160;2022-12-16T17:21:45;28.60;;;10.95;;
68229;SDS011;55048;52.220;5.160;2022-12-16T17:24:29;25.67;;;11.10;;
68229;SDS011;55048;52.220;5.160;2022-12-16T17:27:17;29.77;;;15.55;;
68229;SDS011;55048;52.220;5.160;2022-12-16T17:30:04;31.20;;;16.52;;
68229;SDS011;55048;52.220;5.160;2022-12-16T17:32:55;44.08;;;22.17;;
68229;SDS011;55048;52.220;5.160;2022-12-16T17:35:39;50.70;;;26.58;;
68229;SDS011;55048;52.220;5.160;2022-12-16T17:38:23;48.38;;;24.10;;
68229;SDS011;55048;52.220;5.160;2022-12-16T17:41:07;37.58;;;20.98;;
68229;SDS011;55048;52.220;5.160;2022-12-16T17:43:51;39.35;;;21.48;;
68229;SDS011;55048;52.220;5.160;2022-12-16T17:46:36;53.75;;;24.83;;
68229;SDS011;55048;52.220;5.160;2022-12-16T17:49:20;52.67;;;26.65;;
68229;SDS011;55048;52.220;5.160;2022-12-16T17:52:04;66.93;;;27.10;;
68229;SDS011;55048;52.220;5.160;2022-12-16T17:54:48;60.45;;;26.17;;
68229;SDS011;55048;52.220;5.160;2022-12-16T17:57:32;60.28;;;26.80;;
68229;SDS011;55048;52.220;5.160;2022-12-16T18:00:15;57.10;;;26.30;;
68229;SDS011;55048;52.220;5.160;2022-12-16T18:02:59;50.40;;;24.17;;
68229;SDS011;55048;52.220;5.160;2022-12-16T18:05:43;57.42;;;26.23;;